Flight Track Log - Related Links

Times and Time Zones

All times are in EDT time to prevent confusion due to time zone crossing. See the FLG3735 flight status page for this flight to view local times or setup timezone preferences in your user account.

Time Position Orientation Groundspeed Altitude Reporting Facility
EDT Latitude Longitude Course Direction KTS MPH feet Rate Location/Type
Wed 11:02:10 PM 42.2017 -83.3583 90° East 159 183 1,200  Level Cleveland Center
Wed 11:02:52 PM 42.1722 -83.3625 186° South 171 197 2,400 1,864 Climbing Cleveland Center
Wed 11:03:53 PM 42.1142 -83.3544 174° South 208 239 4,400 1,537 Climbing Cleveland Center
Wed 11:04:53 PM 42.1222 -83.2736 82° East 298 343 5,500 1,748 Climbing Cleveland Center
Wed 11:05:00 PM 42.3188 -82.7288 82° East  Level FlightAware Approximate
Wed 11:06:00 PM 42.3366 -82.5702 71° East  Level FlightAware Approximate
Wed 11:06:00 PM 42.1744 -83.1750 54° Northeast 293 337 8,100  Level Cleveland Center
Wed 11:06:54 PM 42.2203 -83.0842 56° Northeast 309 356 9,900 1,516 Climbing Cleveland Center
Wed 11:07:00 PM 42.3667 -82.4193 90° East  Level FlightAware Approximate
Wed 11:07:31 PM 42.2508 -83.0181 58° Northeast 422 486 10,400  Level Cleveland Center
Wed 11:08:31 PM 42.2783 -82.9097 71° East 366 421 11,900 1,350 Climbing Cleveland Center
Wed 11:09:31 PM 42.3039 -82.7758 75° East 349 402 13,100 1,250 Climbing Cleveland Center
Wed 11:10:31 PM 42.3314 -82.6308 76° East 374 430 14,400 1,150 Climbing Cleveland Center
Wed 11:11:31 PM 42.3611 -82.4828 75° East 394 453 15,400 1,000 Climbing Cleveland Center
Wed 11:12:31 PM 42.3636 -82.3225 89° East 406 467 16,400 1,100 Climbing Cleveland Center
Wed 11:13:31 PM 42.3556 -82.1622 94° East 412 474 17,600 1,500 Climbing Cleveland Center
Wed 11:14:31 PM 42.3492 -82.0047 93° East 427 491 19,400 1,550 Climbing Cleveland Center
Wed 11:15:31 PM 42.3428 -81.8558 93° East 416 479 20,700 1,150 Climbing Cleveland Center
Wed 11:16:31 PM 42.3339 -81.6869 94° East 405 466 21,700 900 Climbing Cleveland Center
Wed 11:17:31 PM 42.3269 -81.5325 93° East 405 466 22,500 700 Climbing Cleveland Center
Wed 11:18:31 PM 42.3200 -81.3722 93° East 412 474 23,100 650 Climbing Cleveland Center
Wed 11:19:31 PM 42.3125 -81.2122 94° East 425 489 23,800 650 Climbing Cleveland Center
Wed 11:20:31 PM 42.3050 -81.0464 93° East 436 502 24,400 600 Climbing Cleveland Center
Wed 11:21:31 PM 42.2953 -80.8750 94° East 447 514 25,000 600 Climbing Cleveland Center
Wed 11:22:31 PM 42.2872 -80.7067 94° East 452 520 25,600 550 Climbing Cleveland Center
Wed 11:23:31 PM 42.2914 -80.5522 88° East 452 520 26,100 550 Climbing Cleveland Center
Wed 11:24:31 PM 42.3100 -80.3839 81° East 450 518 26,700 550 Climbing Cleveland Center
Wed 11:25:31 PM 42.3283 -80.2153 82° East 450 518 27,200 500 Climbing Cleveland Center
Wed 11:26:31 PM 42.3422 -80.0411 84° East 461 531 27,700 500 Climbing Cleveland Center
Wed 11:27:31 PM 42.3600 -79.8639 82° East 466 536 28,200 500 Climbing Cleveland Center
Wed 11:28:31 PM 42.3733 -79.6922 84° East 466 536 28,700 550 Climbing Cleveland Center
Wed 11:29:31 PM 42.3886 -79.5178 83° East 461 531 29,300 500 Climbing Cleveland Center
Wed 11:30:31 PM 42.4056 -79.3431 82° East 466 536 29,700 500 Climbing Cleveland Center
Wed 11:31:31 PM 42.4203 -79.1683 83° East 466 536 30,300 550 Climbing Cleveland Center
Wed 11:32:31 PM 42.4347 -78.9908 84° East 466 536 30,800 350 Climbing Cleveland Center
Wed 11:33:31 PM 42.4506 -78.8047 83° East 461 531 31,000 100 Climbing Cleveland Center
Wed 11:34:31 PM 42.4664 -78.6214 83° East 466 536 31,000  Level Cleveland Center
Wed 11:35:31 PM 42.4819 -78.4406 83° East 479 551 31,000  Level Cleveland Center
Wed 11:36:31 PM 42.4953 -78.2572 84° East 484 557 31,000  Level Cleveland Center
Wed 11:37:31 PM 42.5081 -78.0819 84° East 491 565 31,000 -200 Level Cleveland Center
Wed 11:38:31 PM 42.5208 -77.8983 85° East 497 572 30,600 -750 Descending Cleveland Center
Wed 11:39:31 PM 42.5350 -77.7117 84° East 497 572 29,500 -632 Descending Cleveland Center
Wed 11:41:03 PM 42.5561 -77.4133 84° East 478 550 29,000 -197 Descending Boston Center
Wed 11:42:03 PM 42.5675 -77.2447 85° East 483 556 29,000  Level Boston Center
Wed 11:43:03 PM 42.5794 -77.0622 85° East 488 562 29,000  Level Boston Center
Wed 11:44:03 PM 42.5931 -76.8772 84° East 488 562 29,000  Level Boston Center
Wed 11:45:03 PM 42.6044 -76.6889 85° East 493 567 29,000  Level Boston Center
Wed 11:46:03 PM 42.6156 -76.5006 85° East 493 567 29,000  Level Boston Center
Wed 11:47:03 PM 42.6283 -76.3122 85° East 493 567 29,000  Level Boston Center
Wed 11:48:03 PM 42.6386 -76.1236 86° East 493 567 29,000 -250 Level Boston Center
Wed 11:49:03 PM 42.6467 -75.9350 87° East 498 573 28,500 -1,400 Descending Boston Center
Wed 11:50:03 PM 42.6586 -75.7519 85° East 491 565 26,200 -2,150 Descending Boston Center
Wed 11:51:03 PM 42.6678 -75.5717 86° East 486 559 24,200 -2,000 Descending Boston Center
Wed 11:52:03 PM 42.6792 -75.3858 85° East 486 559 22,200 -2,000 Descending Boston Center
Wed 11:53:03 PM 42.6878 -75.2028 86° East 486 559 20,200 -2,050 Descending Boston Center
Wed 11:54:03 PM 42.6961 -75.0250 86° East 474 545 18,100 -2,050 Descending Boston Center
Wed 11:55:03 PM 42.7042 -74.8558 86° East 461 531 16,100 -2,241 Descending Boston Center
Wed 11:55:26 PM 42.7056 -74.7767 89° East 431 496 15,000 -2,200 Descending Boston Center
Wed 11:56:03 PM 42.7114 -74.6950 84° East 435 501 13,900 -2,111 Descending Boston Center
Wed 11:56:20 PM 42.7147 -74.6303 86° East 410 472 13,100 -2,300 Descending Boston Center
Wed 11:57:03 PM 42.7189 -74.5314 87° East 400 460 11,600 -1,967 Descending Boston Center
Wed 11:57:21 PM 42.7194 -74.4917 89° East 364 419 11,100 -700 Descending Boston Center
Wed 11:58:03 PM 42.7019 -74.4178 108° East 353 406 10,900 -590 Descending Boston Center
Wed 11:58:22 PM 42.6925 -74.3694 105° East 323 372 10,500 -1,400 Descending Boston Center
Wed 11:59:03 PM 42.6731 -74.2897 108° East 320 368 9,500 -1,400 Descending Boston Center
Wed 11:59:22 PM 42.6672 -74.2614 106° East 294 338 9,100 -1,400 Descending Boston Center
Thu 12:00:03 AM 42.6514 -74.1958 108° East 300 345 8,100 -1,545 Descending Boston Center
Thu 12:01:03 AM 42.6261 -74.0908 108° East 281 323 6,500 -1,800 Descending Boston Center
Thu 12:02:03 AM 42.6294 -73.9894 87° East 267 307 4,500 -1,840 Descending Boston Center
Thu 12:02:18 AM 42.6256 -73.9667 103° East 266 306 4,200 -1,200 Descending Boston Center
Thu 12:03:03 AM 42.6286 -73.8961 87° East 257 296 3,300 -1,279 Descending Boston Center
Thu 12:03:19 AM 42.6289 -73.8681 89° East 240 276 2,900 -1,100 Descending Boston Center
Thu 12:04:03 AM 42.6275 -73.8256 93° East 244 281 2,200 -1,100 Descending Boston Center
Thu 12:04:19 AM 42.6403 -73.7978 58° Northeast 195 224 1,800 -701 Descending Boston Center
Thu 12:05:20 AM 42.6861 -73.8072 351° North 154 177 1,300 -595 Descending Boston Center
Thu 12:06:20 AM 42.7256 -73.8053 North 141 162 600 -700 Descending Boston Center

Login

Don't have an account? Register now (free) for customized features, flight alerts, and more!